sensor_id;sensor_type;location;lat;lon;timestamp;P1;durP1;ratioP1;P2;durP2;ratioP2
5827;SDS011;42583;50.240;8.444;2023-03-23T00:03:49;2.75;;;1.33;;
5827;SDS011;42583;50.240;8.444;2023-03-23T00:18:51;4.43;;;1.60;;
5827;SDS011;42583;50.240;8.444;2023-03-23T00:33:52;3.60;;;1.30;;
5827;SDS011;42583;50.240;8.444;2023-03-23T00:48:54;3.13;;;1.40;;
5827;SDS011;42583;50.240;8.444;2023-03-23T01:03:57;3.85;;;1.42;;
5827;SDS011;42583;50.240;8.444;2023-03-23T01:19:00;2.80;;;1.40;;
5827;SDS011;42583;50.240;8.444;2023-03-23T01:34:01;2.60;;;1.30;;
5827;SDS011;42583;50.240;8.444;2023-03-23T01:49:06;2.13;;;1.40;;
5827;SDS011;42583;50.240;8.444;2023-03-23T02:04:13;3.35;;;1.20;;
5827;SDS011;42583;50.240;8.444;2023-03-23T02:34:45;2.20;;;1.27;;
5827;SDS011;42583;50.240;8.444;2023-03-23T02:49:52;3.17;;;1.50;;
5827;SDS011;42583;50.240;8.444;2023-03-23T03:20:14;3.42;;;1.70;;
5827;SDS011;42583;50.240;8.444;2023-03-23T03:35:16;2.65;;;1.60;;
5827;SDS011;42583;50.240;8.444;2023-03-23T03:50:18;4.13;;;1.70;;
5827;SDS011;42583;50.240;8.444;2023-03-23T04:05:18;3.58;;;1.67;;
5827;SDS011;42583;50.240;8.444;2023-03-23T04:20:20;4.05;;;1.70;;
5827;SDS011;42583;50.240;8.444;2023-03-23T04:35:21;4.20;;;1.58;;
5827;SDS011;42583;50.240;8.444;2023-03-23T04:50:26;3.50;;;1.65;;
5827;SDS011;42583;50.240;8.444;2023-03-23T05:05:33;2.15;;;1.55;;
5827;SDS011;42583;50.240;8.444;2023-03-23T05:20:34;3.10;;;1.80;;
5827;SDS011;42583;50.240;8.444;2023-03-23T05:35:35;3.10;;;1.88;;
5827;SDS011;42583;50.240;8.444;2023-03-23T05:50:36;2.30;;;1.67;;
5827;SDS011;42583;50.240;8.444;2023-03-23T06:05:41;5.10;;;2.08;;
5827;SDS011;42583;50.240;8.444;2023-03-23T06:20:45;5.15;;;2.50;;
5827;SDS011;42583;50.240;8.444;2023-03-23T06:35:46;4.18;;;2.13;;
5827;SDS011;42583;50.240;8.444;2023-03-23T06:50:48;4.90;;;2.40;;
5827;SDS011;42583;50.240;8.444;2023-03-23T07:05:48;3.53;;;2.20;;
5827;SDS011;42583;50.240;8.444;2023-03-23T07:20:50;4.55;;;2.20;;
5827;SDS011;42583;50.240;8.444;2023-03-23T07:35:52;5.57;;;2.80;;
5827;SDS011;42583;50.240;8.444;2023-03-23T07:50:52;2.53;;;2.08;;
5827;SDS011;42583;50.240;8.444;2023-03-23T08:05:53;3.50;;;2.50;;
5827;SDS011;42583;50.240;8.444;2023-03-23T08:20:57;5.07;;;2.97;;
5827;SDS011;42583;50.240;8.444;2023-03-23T08:35:58;6.10;;;2.67;;
5827;SDS011;42583;50.240;8.444;2023-03-23T08:51:01;4.85;;;2.90;;
5827;SDS011;42583;50.240;8.444;2023-03-23T09:21:07;4.80;;;2.65;;
5827;SDS011;42583;50.240;8.444;2023-03-23T09:36:09;3.65;;;2.33;;
5827;SDS011;42583;50.240;8.444;2023-03-23T10:06:36;2.60;;;2.00;;
5827;SDS011;42583;50.240;8.444;2023-03-23T10:21:39;3.03;;;1.70;;
5827;SDS011;42583;50.240;8.444;2023-03-23T11:07:27;1.95;;;1.40;;
5827;SDS011;42583;50.240;8.444;2023-03-23T11:22:31;2.22;;;1.30;;
5827;SDS011;42583;50.240;8.444;2023-03-23T11:37:40;1.27;;;1.17;;
5827;SDS011;42583;50.240;8.444;2023-03-23T12:08:20;1.92;;;1.50;;
5827;SDS011;42583;50.240;8.444;2023-03-23T12:23:33;3.63;;;1.48;;
5827;SDS011;42583;50.240;8.444;2023-03-23T12:38:50;1.40;;;1.30;;
5827;SDS011;42583;50.240;8.444;2023-03-23T12:54:11;1.95;;;1.35;;
5827;SDS011;42583;50.240;8.444;2023-03-23T13:24:19;1.65;;;1.40;;
5827;SDS011;42583;50.240;8.444;2023-03-23T13:39:26;2.75;;;1.20;;
5827;SDS011;42583;50.240;8.444;2023-03-23T14:09:42;2.65;;;1.20;;
5827;SDS011;42583;50.240;8.444;2023-03-23T14:24:45;2.27;;;1.33;;
5827;SDS011;42583;50.240;8.444;2023-03-23T14:39:46;2.00;;;1.52;;
5827;SDS011;42583;50.240;8.444;2023-03-23T14:54:49;3.67;;;1.70;;
5827;SDS011;42583;50.240;8.444;2023-03-23T15:09:50;2.80;;;1.45;;
5827;SDS011;42583;50.240;8.444;2023-03-23T15:24:51;2.00;;;1.60;;
5827;SDS011;42583;50.240;8.444;2023-03-23T15:40:01;4.82;;;1.60;;
5827;SDS011;42583;50.240;8.444;2023-03-23T15:55:03;1.90;;;1.60;;
5827;SDS011;42583;50.240;8.444;2023-03-23T16:10:19;2.63;;;1.80;;
5827;SDS011;42583;50.240;8.444;2023-03-23T16:25:21;3.58;;;2.00;;
5827;SDS011;42583;50.240;8.444;2023-03-23T16:40:22;4.13;;;1.70;;
5827;SDS011;42583;50.240;8.444;2023-03-23T16:55:24;2.58;;;1.77;;
5827;SDS011;42583;50.240;8.444;2023-03-23T17:10:26;3.67;;;1.90;;
5827;SDS011;42583;50.240;8.444;2023-03-23T17:25:28;3.13;;;2.10;;
5827;SDS011;42583;50.240;8.444;2023-03-23T17:40:32;4.15;;;2.63;;
5827;SDS011;42583;50.240;8.444;2023-03-23T17:55:33;5.38;;;2.78;;
5827;SDS011;42583;50.240;8.444;2023-03-23T18:10:34;7.68;;;2.60;;
5827;SDS011;42583;50.240;8.444;2023-03-23T18:25:36;5.55;;;2.72;;
5827;SDS011;42583;50.240;8.444;2023-03-23T18:40:44;4.82;;;2.58;;
5827;SDS011;42583;50.240;8.444;2023-03-23T18:55:45;6.10;;;2.65;;
5827;SDS011;42583;50.240;8.444;2023-03-23T19:10:47;7.65;;;3.00;;
5827;SDS011;42583;50.240;8.444;2023-03-23T19:25:47;5.07;;;2.70;;
5827;SDS011;42583;50.240;8.444;2023-03-23T19:40:52;4.28;;;2.50;;
5827;SDS011;42583;50.240;8.444;2023-03-23T19:55:54;5.53;;;3.10;;
5827;SDS011;42583;50.240;8.444;2023-03-23T20:11:01;5.65;;;3.50;;
5827;SDS011;42583;50.240;8.444;2023-03-23T20:26:11;5.85;;;3.60;;
5827;SDS011;42583;50.240;8.444;2023-03-23T20:41:23;3.92;;;2.88;;
5827;SDS011;42583;50.240;8.444;2023-03-23T20:56:23;6.93;;;3.53;;
5827;SDS011;42583;50.240;8.444;2023-03-23T21:11:25;8.13;;;4.60;;
5827;SDS011;42583;50.240;8.444;2023-03-23T21:26:27;7.22;;;4.40;;
5827;SDS011;42583;50.240;8.444;2023-03-23T21:41:28;6.53;;;4.18;;
5827;SDS011;42583;50.240;8.444;2023-03-23T21:56:29;8.30;;;5.07;;
5827;SDS011;42583;50.240;8.444;2023-03-23T22:11:30;8.25;;;4.65;;
5827;SDS011;42583;50.240;8.444;2023-03-23T22:26:31;7.07;;;4.80;;
5827;SDS011;42583;50.240;8.444;2023-03-23T22:41:34;10.65;;;5.53;;
5827;SDS011;42583;50.240;8.444;2023-03-23T22:56:37;8.67;;;5.17;;
5827;SDS011;42583;50.240;8.444;2023-03-23T23:11:37;10.23;;;5.05;;
5827;SDS011;42583;50.240;8.444;2023-03-23T23:26:38;8.10;;;4.43;;
5827;SDS011;42583;50.240;8.444;2023-03-23T23:41:38;7.95;;;4.57;;
5827;SDS011;42583;50.240;8.444;2023-03-23T23:56:39;9.25;;;4.68;;
